sensor_id;sensor_type;location;lat;lon;timestamp;temperature;humidity
9157;DHT22;4613;48.392;9.998;2022-09-09T00:01:21;15.90;99.90
9157;DHT22;4613;48.392;9.998;2022-09-09T00:03:59;15.30;99.90
9157;DHT22;4613;48.392;9.998;2022-09-09T00:06:33;15.20;99.90
9157;DHT22;4613;48.392;9.998;2022-09-09T00:09:16;15.10;99.90
9157;DHT22;4613;48.392;9.998;2022-09-09T00:12:01;15.50;99.90
9157;DHT22;4613;48.392;9.998;2022-09-09T00:14:39;15.60;99.90
9157;DHT22;4613;48.392;9.998;2022-09-09T00:19:59;15.30;99.90
9157;DHT22;4613;48.392;9.998;2022-09-09T00:22:32;14.50;99.90
9157;DHT22;4613;48.392;9.998;2022-09-09T00:25:19;14.50;99.90
9157;DHT22;4613;48.392;9.998;2022-09-09T00:27:54;14.60;99.90
9157;DHT22;4613;48.392;9.998;2022-09-09T00:30:32;14.90;99.90
9157;DHT22;4613;48.392;9.998;2022-09-09T00:33:11;15.20;99.90
9157;DHT22;4613;48.392;9.998;2022-09-09T00:35:49;15.20;99.90
9157;DHT22;4613;48.392;9.998;2022-09-09T00:38:37;15.10;99.90
9157;DHT22;4613;48.392;9.998;2022-09-09T00:41:19;15.30;99.90
9157;DHT22;4613;48.392;9.998;2022-09-09T00:44:42;15.60;99.90
9157;DHT22;4613;48.392;9.998;2022-09-09T00:50:01;15.60;99.90
9157;DHT22;4613;48.392;9.998;2022-09-09T00:55:49;15.80;99.90
9157;DHT22;4613;48.392;9.998;2022-09-09T01:02:40;15.60;99.90
9157;DHT22;4613;48.392;9.998;2022-09-09T01:05:44;15.20;99.90
9157;DHT22;4613;48.392;9.998;2022-09-09T01:08:34;15.00;99.90
9157;DHT22;4613;48.392;9.998;2022-09-09T01:11:14;15.50;99.90
9157;DHT22;4613;48.392;9.998;2022-09-09T01:13:52;15.30;99.90
9157;DHT22;4613;48.392;9.998;2022-09-09T01:16:25;15.60;99.90
9157;DHT22;4613;48.392;9.998;2022-09-09T01:18:58;15.60;99.90
9157;DHT22;4613;48.392;9.998;2022-09-09T01:21:47;15.60;99.90
9157;DHT22;4613;48.392;9.998;2022-09-09T01:24:47;15.00;99.90
9157;DHT22;4613;48.392;9.998;2022-09-09T01:27:49;15.30;99.90
9157;DHT22;4613;48.392;9.998;2022-09-09T01:30:22;15.20;99.90
9157;DHT22;4613;48.392;9.998;2022-09-09T01:32:56;15.00;99.90
9157;DHT22;4613;48.392;9.998;2022-09-09T01:35:48;15.00;99.90
9157;DHT22;4613;48.392;9.998;2022-09-09T01:38:24;14.70;99.90
9157;DHT22;4613;48.392;9.998;2022-09-09T01:40:57;14.60;99.90
9157;DHT22;4613;48.392;9.998;2022-09-09T01:43:37;14.90;99.90
9157;DHT22;4613;48.392;9.998;2022-09-09T01:46:08;14.90;99.90
9157;DHT22;4613;48.392;9.998;2022-09-09T01:48:41;14.50;99.90
9157;DHT22;4613;48.392;9.998;2022-09-09T01:51:14;14.20;99.90
9157;DHT22;4613;48.392;9.998;2022-09-09T01:53:46;14.20;99.90
9157;DHT22;4613;48.392;9.998;2022-09-09T01:59:47;14.20;99.90
9157;DHT22;4613;48.392;9.998;2022-09-09T02:02:29;14.00;99.90
9157;DHT22;4613;48.392;9.998;2022-09-09T02:05:36;14.40;99.90
9157;DHT22;4613;48.392;9.998;2022-09-09T02:08:20;14.30;99.90
9157;DHT22;4613;48.392;9.998;2022-09-09T02:11:11;14.00;99.90
9157;DHT22;4613;48.392;9.998;2022-09-09T02:13:48;14.00;99.90
9157;DHT22;4613;48.392;9.998;2022-09-09T02:16:30;14.10;99.90
9157;DHT22;4613;48.392;9.998;2022-09-09T02:19:08;14.40;99.90
9157;DHT22;4613;48.392;9.998;2022-09-09T02:21:53;14.40;99.90
9157;DHT22;4613;48.392;9.998;2022-09-09T02:24:27;14.20;99.90
9157;DHT22;4613;48.392;9.998;2022-09-09T02:27:12;14.30;99.90
9157;DHT22;4613;48.392;9.998;2022-09-09T02:29:44;14.20;99.90
9157;DHT22;4613;48.392;9.998;2022-09-09T02:32:22;14.10;99.90
9157;DHT22;4613;48.392;9.998;2022-09-09T02:35:02;14.20;99.90
9157;DHT22;4613;48.392;9.998;2022-09-09T02:37:39;13.80;99.90
9157;DHT22;4613;48.392;9.998;2022-09-09T02:40:12;13.70;99.90
9157;DHT22;4613;48.392;9.998;2022-09-09T02:42:48;13.90;99.90
9157;DHT22;4613;48.392;9.998;2022-09-09T02:45:29;14.00;99.90
9157;DHT22;4613;48.392;9.998;2022-09-09T02:50:37;14.00;99.90
9157;DHT22;4613;48.392;9.998;2022-09-09T02:55:56;14.00;99.90
9157;DHT22;4613;48.392;9.998;2022-09-09T02:58:28;14.00;99.90
9157;DHT22;4613;48.392;9.998;2022-09-09T03:01:07;14.10;99.90
9157;DHT22;4613;48.392;9.998;2022-09-09T03:03:40;14.00;99.90
9157;DHT22;4613;48.392;9.998;2022-09-09T03:06:17;13.60;99.90
9157;DHT22;4613;48.392;9.998;2022-09-09T03:08:52;13.80;99.90
9157;DHT22;4613;48.392;9.998;2022-09-09T03:11:29;14.10;99.90
9157;DHT22;4613;48.392;9.998;2022-09-09T03:14:00;14.30;99.90
9157;DHT22;4613;48.392;9.998;2022-09-09T03:16:35;14.30;99.90
9157;DHT22;4613;48.392;9.998;2022-09-09T03:19:09;14.10;99.90
9157;DHT22;4613;48.392;9.998;2022-09-09T03:21:40;14.10;99.90
9157;DHT22;4613;48.392;9.998;2022-09-09T03:24:11;13.90;99.90
9157;DHT22;4613;48.392;9.998;2022-09-09T03:26:43;13.80;99.90
9157;DHT22;4613;48.392;9.998;2022-09-09T03:29:18;13.60;99.90
9157;DHT22;4613;48.392;9.998;2022-09-09T03:31:49;14.10;99.90
9157;DHT22;4613;48.392;9.998;2022-09-09T03:34:22;14.10;99.90
9157;DHT22;4613;48.392;9.998;2022-09-09T03:36:53;13.60;99.90
9157;DHT22;4613;48.392;9.998;2022-09-09T03:39:24;13.80;99.90
9157;DHT22;4613;48.392;9.998;2022-09-09T03:41:55;13.60;99.90
9157;DHT22;4613;48.392;9.998;2022-09-09T03:44:27;13.80;99.90
9157;DHT22;4613;48.392;9.998;2022-09-09T03:46:59;13.80;99.90
9157;DHT22;4613;48.392;9.998;2022-09-09T03:49:31;13.60;99.90
9157;DHT22;4613;48.392;9.998;2022-09-09T03:52:02;14.00;99.90
9157;DHT22;4613;48.392;9.998;2022-09-09T03:54:33;14.00;99.90
9157;DHT22;4613;48.392;9.998;2022-09-09T03:57:04;14.00;99.90
9157;DHT22;4613;48.392;9.998;2022-09-09T03:59:36;13.80;99.90
9157;DHT22;4613;48.392;9.998;2022-09-09T04:02:08;13.80;99.90
9157;DHT22;4613;48.392;9.998;2022-09-09T04:04:39;14.00;99.90
9157;DHT22;4613;48.392;9.998;2022-09-09T04:07:10;13.90;99.90
9157;DHT22;4613;48.392;9.998;2022-09-09T04:09:44;13.70;99.90
9157;DHT22;4613;48.392;9.998;2022-09-09T04:12:16;14.00;99.90
9157;DHT22;4613;48.392;9.998;2022-09-09T04:14:49;14.10;99.90
9157;DHT22;4613;48.392;9.998;2022-09-09T04:17:21;14.30;99.90
9157;DHT22;4613;48.392;9.998;2022-09-09T04:19:52;14.00;99.90
9157;DHT22;4613;48.392;9.998;2022-09-09T04:22:23;13.70;99.90
9157;DHT22;4613;48.392;9.998;2022-09-09T04:24:54;13.80;99.90
9157;DHT22;4613;48.392;9.998;2022-09-09T04:27:26;13.80;99.90
9157;DHT22;4613;48.392;9.998;2022-09-09T04:29:58;13.70;99.90
9157;DHT22;4613;48.392;9.998;2022-09-09T04:32:35;13.80;99.90
9157;DHT22;4613;48.392;9.998;2022-09-09T04:35:08;13.90;99.90
9157;DHT22;4613;48.392;9.998;2022-09-09T04:37:39;13.70;99.90
9157;DHT22;4613;48.392;9.998;2022-09-09T04:40:10;13.70;99.90
9157;DHT22;4613;48.392;9.998;2022-09-09T04:42:41;13.50;99.90
9157;DHT22;4613;48.392;9.998;2022-09-09T04:45:17;13.90;99.90
9157;DHT22;4613;48.392;9.998;2022-09-09T04:47:50;13.90;99.90
9157;DHT22;4613;48.392;9.998;2022-09-09T04:50:21;14.10;99.90
9157;DHT22;4613;48.392;9.998;2022-09-09T04:52:52;14.20;99.90
9157;DHT22;4613;48.392;9.998;2022-09-09T04:55:23;14.10;99.90
9157;DHT22;4613;48.392;9.998;2022-09-09T04:57:54;13.90;99.90
9157;DHT22;4613;48.392;9.998;2022-09-09T05:00:25;13.80;99.90
9157;DHT22;4613;48.392;9.998;2022-09-09T05:02:56;13.70;99.90
9157;DHT22;4613;48.392;9.998;2022-09-09T05:05:29;13.80;99.90
9157;DHT22;4613;48.392;9.998;2022-09-09T05:08:06;14.10;99.90
9157;DHT22;4613;48.392;9.998;2022-09-09T05:10:38;14.20;99.90
9157;DHT22;4613;48.392;9.998;2022-09-09T05:13:11;14.00;99.90
9157;DHT22;4613;48.392;9.998;2022-09-09T05:15:42;13.70;99.90
9157;DHT22;4613;48.392;9.998;2022-09-09T05:18:21;13.60;99.90
9157;DHT22;4613;48.392;9.998;2022-09-09T05:20:58;13.00;99.90
9157;DHT22;4613;48.392;9.998;2022-09-09T05:23:31;13.00;99.90
9157;DHT22;4613;48.392;9.998;2022-09-09T05:26:04;13.00;99.90
9157;DHT22;4613;48.392;9.998;2022-09-09T05:28:35;13.40;99.90
9157;DHT22;4613;48.392;9.998;2022-09-09T05:31:09;14.00;99.90
9157;DHT22;4613;48.392;9.998;2022-09-09T05:33:44;14.00;99.90
9157;DHT22;4613;48.392;9.998;2022-09-09T05:36:20;13.90;99.90
9157;DHT22;4613;48.392;9.998;2022-09-09T05:38:55;13.80;99.90
9157;DHT22;4613;48.392;9.998;2022-09-09T05:41:26;13.30;99.90
9157;DHT22;4613;48.392;9.998;2022-09-09T05:44:01;13.10;99.90
9157;DHT22;4613;48.392;9.998;2022-09-09T05:46:33;12.90;99.90
9157;DHT22;4613;48.392;9.998;2022-09-09T05:49:04;13.10;99.90
9157;DHT22;4613;48.392;9.998;2022-09-09T05:51:37;12.70;99.90
9157;DHT22;4613;48.392;9.998;2022-09-09T05:54:13;12.80;99.90
9157;DHT22;4613;48.392;9.998;2022-09-09T05:56:49;13.30;99.90
9157;DHT22;4613;48.392;9.998;2022-09-09T05:59:21;13.60;99.90
9157;DHT22;4613;48.392;9.998;2022-09-09T06:01:56;13.70;99.90
9157;DHT22;4613;48.392;9.998;2022-09-09T06:04:38;14.00;99.90
9157;DHT22;4613;48.392;9.998;2022-09-09T06:07:09;14.20;99.90
9157;DHT22;4613;48.392;9.998;2022-09-09T06:09:41;14.30;99.90
9157;DHT22;4613;48.392;9.998;2022-09-09T06:12:12;14.10;99.90
9157;DHT22;4613;48.392;9.998;2022-09-09T06:14:44;14.10;99.90
9157;DHT22;4613;48.392;9.998;2022-09-09T06:17:15;14.10;99.90
9157;DHT22;4613;48.392;9.998;2022-09-09T06:19:46;14.50;99.90
9157;DHT22;4613;48.392;9.998;2022-09-09T06:22:17;14.50;99.90
9157;DHT22;4613;48.392;9.998;2022-09-09T06:24:48;14.80;99.90
9157;DHT22;4613;48.392;9.998;2022-09-09T06:27:21;14.90;99.90
9157;DHT22;4613;48.392;9.998;2022-09-09T06:29:52;15.20;99.90
9157;DHT22;4613;48.392;9.998;2022-09-09T06:32:23;14.70;99.90
9157;DHT22;4613;48.392;9.998;2022-09-09T06:34:54;14.50;99.90
9157;DHT22;4613;48.392;9.998;2022-09-09T06:37:25;14.60;99.90
9157;DHT22;4613;48.392;9.998;2022-09-09T06:39:57;14.70;99.90
9157;DHT22;4613;48.392;9.998;2022-09-09T06:42:29;14.70;99.90
9157;DHT22;4613;48.392;9.998;2022-09-09T06:45:09;14.90;99.90
9157;DHT22;4613;48.392;9.998;2022-09-09T06:47:48;14.90;99.90
9157;DHT22;4613;48.392;9.998;2022-09-09T06:50:20;14.60;99.90
9157;DHT22;4613;48.392;9.998;2022-09-09T06:52:53;14.60;99.90
9157;DHT22;4613;48.392;9.998;2022-09-09T06:55:24;14.70;99.90
9157;DHT22;4613;48.392;9.998;2022-09-09T06:57:55;14.70;99.90
9157;DHT22;4613;48.392;9.998;2022-09-09T07:00:27;15.30;99.90
9157;DHT22;4613;48.392;9.998;2022-09-09T07:03:01;15.90;99.90
9157;DHT22;4613;48.392;9.998;2022-09-09T07:05:32;16.70;99.90
9157;DHT22;4613;48.392;9.998;2022-09-09T07:08:04;16.80;99.90
9157;DHT22;4613;48.392;9.998;2022-09-09T07:10:35;17.60;99.90
9157;DHT22;4613;48.392;9.998;2022-09-09T07:13:06;17.60;99.90
9157;DHT22;4613;48.392;9.998;2022-09-09T07:15:38;17.70;99.90
9157;DHT22;4613;48.392;9.998;2022-09-09T07:18:09;17.40;99.90
9157;DHT22;4613;48.392;9.998;2022-09-09T07:20:41;17.60;99.90
9157;DHT22;4613;48.392;9.998;2022-09-09T07:23:12;17.70;99.90
9157;DHT22;4613;48.392;9.998;2022-09-09T07:25:46;18.10;99.90
9157;DHT22;4613;48.392;9.998;2022-09-09T07:28:21;17.80;99.90
9157;DHT22;4613;48.392;9.998;2022-09-09T07:31:00;17.30;99.90
9157;DHT22;4613;48.392;9.998;2022-09-09T07:33:35;16.90;99.90
9157;DHT22;4613;48.392;9.998;2022-09-09T07:36:09;16.30;99.90
9157;DHT22;4613;48.392;9.998;2022-09-09T07:38:45;16.70;99.90
9157;DHT22;4613;48.392;9.998;2022-09-09T07:41:39;16.10;99.90
9157;DHT22;4613;48.392;9.998;2022-09-09T07:46:45;16.70;99.90
9157;DHT22;4613;48.392;9.998;2022-09-09T07:49:20;16.80;99.90
9157;DHT22;4613;48.392;9.998;2022-09-09T07:51:51;16.70;99.90
9157;DHT22;4613;48.392;9.998;2022-09-09T07:54:23;17.10;99.90
9157;DHT22;4613;48.392;9.998;2022-09-09T07:56:55;17.00;99.90
9157;DHT22;4613;48.392;9.998;2022-09-09T07:59:30;16.70;99.90
9157;DHT22;4613;48.392;9.998;2022-09-09T08:02:01;16.30;99.90
9157;DHT22;4613;48.392;9.998;2022-09-09T08:04:35;16.40;99.90
9157;DHT22;4613;48.392;9.998;2022-09-09T08:07:07;16.60;99.90
9157;DHT22;4613;48.392;9.998;2022-09-09T08:09:45;17.00;99.90
9157;DHT22;4613;48.392;9.998;2022-09-09T08:12:24;17.30;99.90
9157;DHT22;4613;48.392;9.998;2022-09-09T08:14:55;17.00;99.90
9157;DHT22;4613;48.392;9.998;2022-09-09T08:17:27;17.10;99.90
9157;DHT22;4613;48.392;9.998;2022-09-09T08:20:01;17.80;99.90
9157;DHT22;4613;48.392;9.998;2022-09-09T08:22:36;18.00;99.90
9157;DHT22;4613;48.392;9.998;2022-09-09T08:25:08;17.60;99.90
9157;DHT22;4613;48.392;9.998;2022-09-09T08:27:42;17.50;99.90
9157;DHT22;4613;48.392;9.998;2022-09-09T08:30:14;17.70;99.90
9157;DHT22;4613;48.392;9.998;2022-09-09T08:32:45;17.80;99.90
9157;DHT22;4613;48.392;9.998;2022-09-09T08:35:16;17.20;99.90
9157;DHT22;4613;48.392;9.998;2022-09-09T08:37:53;16.90;99.90
9157;DHT22;4613;48.392;9.998;2022-09-09T08:40:28;17.10;99.90
9157;DHT22;4613;48.392;9.998;2022-09-09T08:43:02;17.60;99.90
9157;DHT22;4613;48.392;9.998;2022-09-09T08:45:57;17.90;99.90
9157;DHT22;4613;48.392;9.998;2022-09-09T08:49:00;18.50;99.90
9157;DHT22;4613;48.392;9.998;2022-09-09T08:51:30;18.70;99.90
9157;DHT22;4613;48.392;9.998;2022-09-09T08:54:04;18.70;99.90
9157;DHT22;4613;48.392;9.998;2022-09-09T08:56:36;18.80;99.90
9157;DHT22;4613;48.392;9.998;2022-09-09T08:59:10;19.60;99.90
9157;DHT22;4613;48.392;9.998;2022-09-09T09:04:52;18.70;99.90
9157;DHT22;4613;48.392;9.998;2022-09-09T09:07:52;19.00;99.90
9157;DHT22;4613;48.392;9.998;2022-09-09T09:10:50;19.60;99.90
9157;DHT22;4613;48.392;9.998;2022-09-09T09:16:04;19.60;99.90
9157;DHT22;4613;48.392;9.998;2022-09-09T09:18:37;19.00;99.90
9157;DHT22;4613;48.392;9.998;2022-09-09T09:21:12;19.90;99.90
9157;DHT22;4613;48.392;9.998;2022-09-09T09:28:15;20.10;99.90
9157;DHT22;4613;48.392;9.998;2022-09-09T09:31:11;19.90;99.90
9157;DHT22;4613;48.392;9.998;2022-09-09T09:33:50;19.30;99.90
9157;DHT22;4613;48.392;9.998;2022-09-09T09:36:39;19.40;99.90
9157;DHT22;4613;48.392;9.998;2022-09-09T09:39:24;19.40;99.90
9157;DHT22;4613;48.392;9.998;2022-09-09T09:41:56;20.40;99.90
9157;DHT22;4613;48.392;9.998;2022-09-09T09:44:31;20.50;99.90
9157;DHT22;4613;48.392;9.998;2022-09-09T09:47:19;21.20;99.90
9157;DHT22;4613;48.392;9.998;2022-09-09T09:49:59;20.70;99.90
9157;DHT22;4613;48.392;9.998;2022-09-09T09:52:41;20.20;99.90
9157;DHT22;4613;48.392;9.998;2022-09-09T09:55:14;20.00;99.90
9157;DHT22;4613;48.392;9.998;2022-09-09T09:57:46;20.40;99.90
9157;DHT22;4613;48.392;9.998;2022-09-09T10:00:21;21.10;99.90
9157;DHT22;4613;48.392;9.998;2022-09-09T10:03:18;21.70;99.90
9157;DHT22;4613;48.392;9.998;2022-09-09T10:05:50;21.20;99.90
9157;DHT22;4613;48.392;9.998;2022-09-09T10:08:28;20.70;99.90
9157;DHT22;4613;48.392;9.998;2022-09-09T10:19:37;21.00;99.90
9157;DHT22;4613;48.392;9.998;2022-09-09T10:22:44;21.30;99.90
9157;DHT22;4613;48.392;9.998;2022-09-09T10:31:16;21.50;99.90
9157;DHT22;4613;48.392;9.998;2022-09-09T10:36:47;20.90;99.90
9157;DHT22;4613;48.392;9.998;2022-09-09T10:39:39;21.70;99.90
9157;DHT22;4613;48.392;9.998;2022-09-09T10:42:14;20.80;99.90
9157;DHT22;4613;48.392;9.998;2022-09-09T10:44:59;21.00;99.90
9157;DHT22;4613;48.392;9.998;2022-09-09T10:53:38;20.80;99.90
9157;DHT22;4613;48.392;9.998;2022-09-09T10:56:16;20.90;99.90
9157;DHT22;4613;48.392;9.998;2022-09-09T11:01:49;21.20;99.90
9157;DHT22;4613;48.392;9.998;2022-09-09T11:04:27;22.30;99.90
9157;DHT22;4613;48.392;9.998;2022-09-09T11:07:07;22.90;99.90
9157;DHT22;4613;48.392;9.998;2022-09-09T11:09:45;22.50;99.90
9157;DHT22;4613;48.392;9.998;2022-09-09T11:12:21;22.00;99.90
9157;DHT22;4613;48.392;9.998;2022-09-09T11:14:59;22.00;99.90
9157;DHT22;4613;48.392;9.998;2022-09-09T11:17:52;22.40;99.90
9157;DHT22;4613;48.392;9.998;2022-09-09T11:20:25;22.30;99.90
9157;DHT22;4613;48.392;9.998;2022-09-09T11:23:03;21.90;99.90
9157;DHT22;4613;48.392;9.998;2022-09-09T11:25:38;22.20;99.90
9157;DHT22;4613;48.392;9.998;2022-09-09T11:28:38;22.30;99.90
9157;DHT22;4613;48.392;9.998;2022-09-09T11:34:25;22.70;99.90
9157;DHT22;4613;48.392;9.998;2022-09-09T11:44:44;22.60;99.90
9157;DHT22;4613;48.392;9.998;2022-09-09T11:47:29;22.70;99.90
9157;DHT22;4613;48.392;9.998;2022-09-09T11:50:29;21.70;99.90
9157;DHT22;4613;48.392;9.998;2022-09-09T11:53:21;21.60;99.90
9157;DHT22;4613;48.392;9.998;2022-09-09T11:56:09;21.60;99.90
9157;DHT22;4613;48.392;9.998;2022-09-09T11:58:53;21.40;99.90
9157;DHT22;4613;48.392;9.998;2022-09-09T12:04:11;22.50;99.90
9157;DHT22;4613;48.392;9.998;2022-09-09T12:06:54;22.70;99.90
9157;DHT22;4613;48.392;9.998;2022-09-09T12:09:49;23.20;99.90
9157;DHT22;4613;48.392;9.998;2022-09-09T12:12:33;23.20;99.90
9157;DHT22;4613;48.392;9.998;2022-09-09T12:20:19;23.10;99.90
9157;DHT22;4613;48.392;9.998;2022-09-09T12:23:15;23.20;99.90
9157;DHT22;4613;48.392;9.998;2022-09-09T12:26:07;23.20;99.90
9157;DHT22;4613;48.392;9.998;2022-09-09T12:37:42;21.70;99.90
9157;DHT22;4613;48.392;9.998;2022-09-09T12:40:24;22.10;99.90
9157;DHT22;4613;48.392;9.998;2022-09-09T12:42:55;22.10;99.90
9157;DHT22;4613;48.392;9.998;2022-09-09T12:45:30;21.70;99.90
9157;DHT22;4613;48.392;9.998;2022-09-09T12:48:06;22.00;99.90
9157;DHT22;4613;48.392;9.998;2022-09-09T12:50:45;22.10;99.90
9157;DHT22;4613;48.392;9.998;2022-09-09T12:53:29;21.70;99.90
9157;DHT22;4613;48.392;9.998;2022-09-09T12:56:08;21.50;99.90
9157;DHT22;4613;48.392;9.998;2022-09-09T12:58:46;21.40;99.90
9157;DHT22;4613;48.392;9.998;2022-09-09T13:03:53;21.30;99.90
9157;DHT22;4613;48.392;9.998;2022-09-09T13:06:32;20.80;99.90
9157;DHT22;4613;48.392;9.998;2022-09-09T13:09:03;20.90;99.90
9157;DHT22;4613;48.392;9.998;2022-09-09T13:11:47;20.80;99.90
9157;DHT22;4613;48.392;9.998;2022-09-09T13:14:34;21.00;99.90
9157;DHT22;4613;48.392;9.998;2022-09-09T13:17:21;20.70;99.90
9157;DHT22;4613;48.392;9.998;2022-09-09T13:19:53;20.60;99.90
9157;DHT22;4613;48.392;9.998;2022-09-09T13:22:33;20.70;99.90
9157;DHT22;4613;48.392;9.998;2022-09-09T13:30:36;20.90;99.90
9157;DHT22;4613;48.392;9.998;2022-09-09T13:35:52;20.70;99.90
9157;DHT22;4613;48.392;9.998;2022-09-09T13:38:25;20.70;99.90
9157;DHT22;4613;48.392;9.998;2022-09-09T13:41:00;21.20;99.90
9157;DHT22;4613;48.392;9.998;2022-09-09T13:43:38;21.10;99.90
9157;DHT22;4613;48.392;9.998;2022-09-09T13:46:39;20.90;99.90
9157;DHT22;4613;48.392;9.998;2022-09-09T13:51:44;20.80;99.90
9157;DHT22;4613;48.392;9.998;2022-09-09T13:54:19;20.90;99.90
9157;DHT22;4613;48.392;9.998;2022-09-09T13:56:50;21.00;99.90
9157;DHT22;4613;48.392;9.998;2022-09-09T13:59:21;20.90;99.90
9157;DHT22;4613;48.392;9.998;2022-09-09T14:01:55;20.80;99.90
9157;DHT22;4613;48.392;9.998;2022-09-09T14:04:25;21.20;99.90
9157;DHT22;4613;48.392;9.998;2022-09-09T14:06:56;21.40;99.90
9157;DHT22;4613;48.392;9.998;2022-09-09T14:09:27;21.30;99.90
9157;DHT22;4613;48.392;9.998;2022-09-09T14:11:58;21.00;99.90
9157;DHT22;4613;48.392;9.998;2022-09-09T14:14:30;21.10;99.90
9157;DHT22;4613;48.392;9.998;2022-09-09T14:17:01;21.50;99.90
9157;DHT22;4613;48.392;9.998;2022-09-09T14:19:32;21.20;99.90
9157;DHT22;4613;48.392;9.998;2022-09-09T14:22:03;20.80;99.90
9157;DHT22;4613;48.392;9.998;2022-09-09T14:24:34;21.20;99.90
9157;DHT22;4613;48.392;9.998;2022-09-09T14:27:05;21.40;99.90
9157;DHT22;4613;48.392;9.998;2022-09-09T14:29:37;21.60;99.90
9157;DHT22;4613;48.392;9.998;2022-09-09T14:32:07;21.40;99.90
9157;DHT22;4613;48.392;9.998;2022-09-09T14:34:38;21.50;99.90
9157;DHT22;4613;48.392;9.998;2022-09-09T14:37:09;21.70;99.90
9157;DHT22;4613;48.392;9.998;2022-09-09T14:39:40;21.50;99.90
9157;DHT22;4613;48.392;9.998;2022-09-09T14:42:14;21.30;99.90
9157;DHT22;4613;48.392;9.998;2022-09-09T14:44:45;21.50;99.90
9157;DHT22;4613;48.392;9.998;2022-09-09T14:47:16;21.50;99.90
9157;DHT22;4613;48.392;9.998;2022-09-09T14:49:47;21.60;99.90
9157;DHT22;4613;48.392;9.998;2022-09-09T14:52:20;21.80;99.90
9157;DHT22;4613;48.392;9.998;2022-09-09T14:54:51;21.90;99.90
9157;DHT22;4613;48.392;9.998;2022-09-09T14:57:22;22.10;99.90
9157;DHT22;4613;48.392;9.998;2022-09-09T14:59:53;22.10;99.90
9157;DHT22;4613;48.392;9.998;2022-09-09T15:02:24;21.90;99.90
9157;DHT22;4613;48.392;9.998;2022-09-09T15:04:55;21.80;99.90
9157;DHT22;4613;48.392;9.998;2022-09-09T15:07:28;21.60;99.90
9157;DHT22;4613;48.392;9.998;2022-09-09T15:09:59;21.70;99.90
9157;DHT22;4613;48.392;9.998;2022-09-09T15:12:30;21.60;99.90
9157;DHT22;4613;48.392;9.998;2022-09-09T15:15:04;21.70;99.90
9157;DHT22;4613;48.392;9.998;2022-09-09T15:17:35;21.80;99.90
9157;DHT22;4613;48.392;9.998;2022-09-09T15:20:07;22.00;99.90
9157;DHT22;4613;48.392;9.998;2022-09-09T15:22:38;22.20;99.90
9157;DHT22;4613;48.392;9.998;2022-09-09T15:25:11;22.20;99.90
9157;DHT22;4613;48.392;9.998;2022-09-09T15:27:43;22.30;99.90
9157;DHT22;4613;48.392;9.998;2022-09-09T15:30:14;22.20;99.90
9157;DHT22;4613;48.392;9.998;2022-09-09T15:32:45;22.00;99.90
9157;DHT22;4613;48.392;9.998;2022-09-09T15:35:16;22.10;99.90
9157;DHT22;4613;48.392;9.998;2022-09-09T15:37:47;22.00;99.90
9157;DHT22;4613;48.392;9.998;2022-09-09T15:40:18;21.90;99.90
9157;DHT22;4613;48.392;9.998;2022-09-09T15:42:48;22.00;99.90
9157;DHT22;4613;48.392;9.998;2022-09-09T15:45:19;22.10;99.90
9157;DHT22;4613;48.392;9.998;2022-09-09T15:47:51;22.10;99.90
9157;DHT22;4613;48.392;9.998;2022-09-09T15:50:22;21.90;99.90
9157;DHT22;4613;48.392;9.998;2022-09-09T15:52:53;22.00;99.90
9157;DHT22;4613;48.392;9.998;2022-09-09T15:55:24;21.90;99.90
9157;DHT22;4613;48.392;9.998;2022-09-09T15:57:56;22.00;99.90
9157;DHT22;4613;48.392;9.998;2022-09-09T16:00:28;22.10;99.90
9157;DHT22;4613;48.392;9.998;2022-09-09T16:02:59;21.90;99.90
9157;DHT22;4613;48.392;9.998;2022-09-09T16:05:30;22.00;99.90
9157;DHT22;4613;48.392;9.998;2022-09-09T16:08:01;21.90;99.90
9157;DHT22;4613;48.392;9.998;2022-09-09T16:10:33;21.90;99.90
9157;DHT22;4613;48.392;9.998;2022-09-09T16:13:03;21.70;99.90
9157;DHT22;4613;48.392;9.998;2022-09-09T16:15:34;21.50;99.90
9157;DHT22;4613;48.392;9.998;2022-09-09T16:18:05;21.40;99.90
9157;DHT22;4613;48.392;9.998;2022-09-09T16:20:36;21.50;99.90
9157;DHT22;4613;48.392;9.998;2022-09-09T16:23:07;21.40;99.90
9157;DHT22;4613;48.392;9.998;2022-09-09T16:25:38;21.40;99.90
9157;DHT22;4613;48.392;9.998;2022-09-09T16:28:09;21.40;99.90
9157;DHT22;4613;48.392;9.998;2022-09-09T16:30:40;21.40;99.90
9157;DHT22;4613;48.392;9.998;2022-09-09T16:33:10;21.30;99.90
9157;DHT22;4613;48.392;9.998;2022-09-09T16:35:41;21.20;99.90
9157;DHT22;4613;48.392;9.998;2022-09-09T16:38:12;21.20;99.90
9157;DHT22;4613;48.392;9.998;2022-09-09T16:40:43;21.10;99.90
9157;DHT22;4613;48.392;9.998;2022-09-09T16:43:14;21.00;99.90
9157;DHT22;4613;48.392;9.998;2022-09-09T16:45:46;21.00;99.90
9157;DHT22;4613;48.392;9.998;2022-09-09T16:48:17;20.90;99.90
9157;DHT22;4613;48.392;9.998;2022-09-09T16:50:47;20.90;99.90
9157;DHT22;4613;48.392;9.998;2022-09-09T16:53:19;20.80;99.90
9157;DHT22;4613;48.392;9.998;2022-09-09T16:55:50;20.80;99.90
9157;DHT22;4613;48.392;9.998;2022-09-09T16:58:21;20.70;99.90
9157;DHT22;4613;48.392;9.998;2022-09-09T17:00:58;20.70;99.90
9157;DHT22;4613;48.392;9.998;2022-09-09T17:03:30;20.80;99.90
9157;DHT22;4613;48.392;9.998;2022-09-09T17:06:02;20.80;99.90
9157;DHT22;4613;48.392;9.998;2022-09-09T17:08:33;20.80;99.90
9157;DHT22;4613;48.392;9.998;2022-09-09T17:11:14;20.90;99.90
9157;DHT22;4613;48.392;9.998;2022-09-09T17:13:46;20.80;99.90
9157;DHT22;4613;48.392;9.998;2022-09-09T17:16:19;20.60;99.90
9157;DHT22;4613;48.392;9.998;2022-09-09T17:18:54;19.80;99.90
9157;DHT22;4613;48.392;9.998;2022-09-09T17:21:27;19.70;99.90
9157;DHT22;4613;48.392;9.998;2022-09-09T17:24:00;19.70;99.90
9157;DHT22;4613;48.392;9.998;2022-09-09T17:26:32;19.30;99.90
9157;DHT22;4613;48.392;9.998;2022-09-09T17:29:05;19.30;99.90
9157;DHT22;4613;48.392;9.998;2022-09-09T17:31:38;19.30;99.90
9157;DHT22;4613;48.392;9.998;2022-09-09T17:34:09;19.20;99.90
9157;DHT22;4613;48.392;9.998;2022-09-09T17:36:40;18.80;99.90
9157;DHT22;4613;48.392;9.998;2022-09-09T17:39:11;18.80;99.90
9157;DHT22;4613;48.392;9.998;2022-09-09T17:41:42;18.80;99.90
9157;DHT22;4613;48.392;9.998;2022-09-09T17:44:13;18.80;99.90
9157;DHT22;4613;48.392;9.998;2022-09-09T17:46:45;18.60;99.90
9157;DHT22;4613;48.392;9.998;2022-09-09T17:49:17;18.70;99.90
9157;DHT22;4613;48.392;9.998;2022-09-09T17:51:48;18.70;99.90
9157;DHT22;4613;48.392;9.998;2022-09-09T17:54:20;18.70;99.90
9157;DHT22;4613;48.392;9.998;2022-09-09T17:56:50;18.60;99.90
9157;DHT22;4613;48.392;9.998;2022-09-09T17:59:22;18.40;99.90
9157;DHT22;4613;48.392;9.998;2022-09-09T18:01:56;18.50;99.90
9157;DHT22;4613;48.392;9.998;2022-09-09T18:04:27;18.90;99.90
9157;DHT22;4613;48.392;9.998;2022-09-09T18:06:58;19.00;99.90
9157;DHT22;4613;48.392;9.998;2022-09-09T18:09:29;19.00;99.90
9157;DHT22;4613;48.392;9.998;2022-09-09T18:12:00;18.60;99.90
9157;DHT22;4613;48.392;9.998;2022-09-09T18:14:32;18.60;99.90
9157;DHT22;4613;48.392;9.998;2022-09-09T18:17:03;18.40;99.90
9157;DHT22;4613;48.392;9.998;2022-09-09T18:19:34;18.50;99.90
9157;DHT22;4613;48.392;9.998;2022-09-09T18:22:06;18.60;99.90
9157;DHT22;4613;48.392;9.998;2022-09-09T18:24:37;18.40;99.90
9157;DHT22;4613;48.392;9.998;2022-09-09T18:27:08;18.10;99.90
9157;DHT22;4613;48.392;9.998;2022-09-09T18:29:39;18.10;99.90
9157;DHT22;4613;48.392;9.998;2022-09-09T18:32:10;18.20;99.90
9157;DHT22;4613;48.392;9.998;2022-09-09T18:34:41;18.30;99.90
9157;DHT22;4613;48.392;9.998;2022-09-09T18:37:12;18.40;99.90